createdAt,value
2019-06-15T00:02:09.136Z,22.62
2019-06-15T00:04:38.719Z,22.61
2019-06-15T00:07:08.168Z,22.62
2019-06-15T00:09:37.803Z,22.60
2019-06-15T00:12:07.359Z,22.57
2019-06-15T00:14:36.936Z,22.56
2019-06-15T00:17:06.524Z,22.54
2019-06-15T00:19:36.119Z,22.53
2019-06-15T00:22:05.692Z,22.49
2019-06-15T00:24:35.818Z,22.45
2019-06-15T00:27:05.421Z,22.41
2019-06-15T00:29:34.976Z,22.37
2019-06-15T00:32:04.538Z,22.32
2019-06-15T00:34:33.978Z,22.29
2019-06-15T00:37:04.871Z,22.30
2019-06-15T00:39:34.541Z,22.32
2019-06-15T00:42:04.190Z,22.36
2019-06-15T00:44:33.767Z,22.35
2019-06-15T00:47:03.493Z,22.32
2019-06-15T00:49:33.082Z,22.34
2019-06-15T00:52:02.531Z,22.28
2019-06-15T00:54:31.965Z,22.21
2019-06-15T00:57:01.523Z,22.19
2019-06-15T00:59:31.073Z,22.16
2019-06-15T01:02:00.753Z,22.13
2019-06-15T01:04:30.310Z,22.09
2019-06-15T01:06:59.848Z,22.06
2019-06-15T01:09:29.424Z,22.00
2019-06-15T01:11:58.932Z,21.99
2019-06-15T01:14:28.540Z,21.93
2019-06-15T01:16:57.982Z,21.86
2019-06-15T01:19:27.444Z,21.81
2019-06-15T01:21:57.093Z,21.75
2019-06-15T01:24:26.553Z,21.67
2019-06-15T01:26:56.196Z,21.57
2019-06-15T01:29:25.773Z,21.51
2019-06-15T01:31:55.310Z,21.39
2019-06-15T01:34:24.883Z,21.33
2019-06-15T01:36:54.435Z,21.31
2019-06-15T01:39:23.972Z,21.29
2019-06-15T01:41:53.423Z,21.30
2019-06-15T01:44:22.870Z,21.25
2019-06-15T01:46:52.516Z,21.27
2019-06-15T01:49:22.163Z,21.18
2019-06-15T01:51:51.645Z,21.18
2019-06-15T01:54:21.114Z,21.14
2019-06-15T01:56:50.728Z,21.12
2019-06-15T01:59:20.234Z,21.09
2019-06-15T02:01:49.759Z,21.05
2019-06-15T02:04:19.293Z,21.03
2019-06-15T02:06:48.721Z,21.01
2019-06-15T02:09:18.260Z,20.99
2019-06-15T02:11:47.704Z,20.97
2019-06-15T02:14:17.320Z,20.98
2019-06-15T02:16:46.785Z,20.97
2019-06-15T02:19:16.282Z,20.98
2019-06-15T02:21:45.928Z,20.95
2019-06-15T02:24:15.542Z,20.95
2019-06-15T02:26:45.105Z,20.96
2019-06-15T02:29:14.599Z,20.98
2019-06-15T02:31:44.126Z,21.01
2019-06-15T02:34:13.710Z,21.04
2019-06-15T02:36:43.239Z,21.06
2019-06-15T02:39:12.771Z,21.11
2019-06-15T02:41:42.216Z,21.15
2019-06-15T02:44:11.902Z,21.20
2019-06-15T02:46:41.462Z,21.25
2019-06-15T02:49:10.958Z,21.30
2019-06-15T02:51:40.480Z,21.35
2019-06-15T02:54:10.011Z,21.36
2019-06-15T02:56:39.657Z,21.46
2019-06-15T02:59:09.137Z,21.54
2019-06-15T03:01:38.590Z,21.57
2019-06-15T03:04:08.078Z,21.63
2019-06-15T03:06:37.688Z,21.70
2019-06-15T03:09:07.557Z,21.76
2019-06-15T03:11:37.006Z,21.82
2019-06-15T03:14:06.492Z,21.90
2019-06-15T03:16:36.129Z,21.99
2019-06-15T03:19:05.676Z,22.09
2019-06-15T03:21:35.317Z,22.19
2019-06-15T03:24:05.283Z,22.28
2019-06-15T03:26:34.849Z,22.43
2019-06-15T03:29:04.361Z,22.60
2019-06-15T03:31:33.884Z,22.68
2019-06-15T03:34:03.352Z,22.81
2019-06-15T03:36:32.901Z,22.90
2019-06-15T03:39:02.396Z,23.00
2019-06-15T03:41:31.980Z,23.08
2019-06-15T03:44:01.545Z,22.97
2019-06-15T03:46:31.128Z,22.93
2019-06-15T03:49:00.670Z,22.73
2019-06-15T03:51:30.207Z,22.66
2019-06-15T03:53:59.732Z,22.98
2019-06-15T03:56:29.253Z,23.50
2019-06-15T03:58:58.793Z,24.42
2019-06-15T04:01:37.503Z,25.33
2019-06-15T04:04:07.072Z,26.27
2019-06-15T04:06:36.558Z,27.07
2019-06-15T04:09:07.785Z,27.97
2019-06-15T04:11:37.442Z,29.34
2019-06-15T04:14:06.875Z,30.88
2019-06-15T04:16:36.965Z,32.38
2019-06-15T04:19:06.394Z,33.65
2019-06-15T04:21:35.971Z,34.50
2019-06-15T04:24:05.407Z,34.18
2019-06-15T04:26:36.323Z,34.41
2019-06-15T04:29:06.252Z,33.53
2019-06-15T04:31:35.725Z,32.44
2019-06-15T04:34:05.321Z,32.08
2019-06-15T04:36:34.908Z,32.36
2019-06-15T04:39:05.634Z,32.15
2019-06-15T04:41:35.107Z,32.97
2019-06-15T04:44:04.569Z,34.86
2019-06-15T04:46:34.097Z,36.38
2019-06-15T04:49:03.539Z,37.04
2019-06-15T04:51:33.016Z,37.49
2019-06-15T04:54:02.600Z,37.85
2019-06-15T04:56:32.091Z,38.55
2019-06-15T04:59:01.645Z,38.78
2019-06-15T05:01:31.139Z,38.74
2019-06-15T05:04:00.717Z,39.31
2019-06-15T05:06:32.099Z,39.93
2019-06-15T05:09:01.512Z,39.73
2019-06-15T05:11:31.027Z,39.46
2019-06-15T05:14:00.498Z,40.45
2019-06-15T05:16:29.998Z,40.24
2019-06-15T05:18:59.608Z,40.78
2019-06-15T05:21:29.196Z,40.30
2019-06-15T05:23:58.829Z,40.75
2019-06-15T05:26:28.370Z,41.35
2019-06-15T05:28:57.808Z,40.87
2019-06-15T05:31:27.432Z,41.12
2019-06-15T05:33:56.914Z,39.88
2019-06-15T05:36:27.117Z,40.42
2019-06-15T05:38:56.565Z,40.82
2019-06-15T05:41:26.013Z,41.27
2019-06-15T05:43:55.587Z,41.31
2019-06-15T05:46:25.157Z,41.16
2019-06-15T05:48:54.666Z,41.94
2019-06-15T05:51:24.144Z,42.12
2019-06-15T05:53:53.692Z,42.11
2019-06-15T05:56:23.240Z,41.72
2019-06-15T05:58:52.685Z,41.31
2019-06-15T06:01:22.146Z,41.29
2019-06-15T06:03:51.605Z,41.35
2019-06-15T06:06:21.271Z,41.41
2019-06-15T06:08:50.961Z,41.27
2019-06-15T06:11:20.780Z,40.87
2019-06-15T06:13:50.459Z,41.32
2019-06-15T06:16:20.227Z,40.62
2019-06-15T06:18:49.997Z,40.23
2019-06-15T06:21:19.765Z,40.52
2019-06-15T06:23:49.620Z,40.71
2019-06-15T06:26:19.371Z,40.96
2019-06-15T06:28:57.359Z,40.65
2019-06-15T06:31:20.588Z,40.11
2019-06-15T06:33:50.304Z,39.39
2019-06-15T06:36:19.995Z,38.60
2019-06-15T06:38:49.749Z,38.51
2019-06-15T06:41:19.487Z,38.11
2019-06-15T06:43:49.239Z,37.77
2019-06-15T06:46:19.000Z,36.16
2019-06-15T06:48:48.797Z,35.14
2019-06-15T06:51:18.534Z,34.81
2019-06-15T06:53:48.273Z,34.80
2019-06-15T06:56:18.084Z,35.55
2019-06-15T06:58:47.906Z,36.21
2019-06-15T07:01:17.613Z,36.09
2019-06-15T07:03:47.376Z,36.13
2019-06-15T07:06:17.180Z,36.14
2019-06-15T07:08:48.072Z,36.31
2019-06-15T07:11:17.881Z,36.61
2019-06-15T07:13:47.623Z,37.27
2019-06-15T07:16:17.386Z,38.19
2019-06-15T07:18:47.163Z,38.26
2019-06-15T07:21:17.004Z,38.31
2019-06-15T07:23:46.682Z,37.63
2019-06-15T07:26:16.497Z,37.11
2019-06-15T07:28:46.308Z,37.43
2019-06-15T07:31:16.086Z,36.48
2019-06-15T07:33:45.789Z,35.76
2019-06-15T07:36:15.555Z,35.32
2019-06-15T07:38:45.326Z,35.45
2019-06-15T07:41:15.101Z,34.77
2019-06-15T07:43:44.966Z,34.14
2019-06-15T07:46:14.688Z,33.62
2019-06-15T07:48:44.470Z,33.63
2019-06-15T07:51:14.356Z,33.50
2019-06-15T07:53:44.125Z,33.49
2019-06-15T07:56:13.816Z,33.13
2019-06-15T07:58:43.528Z,33.23
2019-06-15T08:01:13.226Z,33.13
2019-06-15T08:03:43.499Z,33.60
2019-06-15T08:06:13.410Z,34.06
2019-06-15T08:08:43.274Z,34.80
2019-06-15T08:11:13.046Z,35.19
2019-06-15T08:13:42.815Z,35.33
2019-06-15T08:16:12.570Z,35.03
2019-06-15T08:18:42.648Z,35.44
2019-06-15T08:21:12.426Z,35.22
2019-06-15T08:23:42.281Z,35.35
2019-06-15T08:26:12.039Z,35.33
2019-06-15T08:28:41.814Z,34.95
2019-06-15T08:31:11.556Z,34.97
2019-06-15T08:33:41.386Z,34.59
2019-06-15T08:36:11.100Z,34.44
2019-06-15T08:38:40.879Z,34.44
2019-06-15T08:41:10.744Z,34.43
2019-06-15T08:43:40.686Z,34.13
2019-06-15T08:46:10.563Z,34.16
2019-06-15T08:48:40.345Z,34.14
2019-06-15T08:51:10.096Z,34.21
2019-06-15T08:53:39.756Z,34.27
2019-06-15T08:56:09.470Z,34.40
2019-06-15T08:58:38.915Z,34.55
2019-06-15T09:01:08.363Z,34.41
2019-06-15T09:03:38.029Z,34.60
2019-06-15T09:06:07.621Z,34.55
2019-06-15T09:08:37.162Z,34.44
2019-06-15T09:11:06.729Z,34.40
2019-06-15T09:13:36.323Z,34.39
2019-06-15T09:16:05.928Z,34.52
2019-06-15T09:18:35.425Z,34.14
2019-06-15T09:21:05.021Z,34.15
2019-06-15T09:23:34.613Z,33.83
2019-06-15T09:26:04.056Z,33.70
2019-06-15T09:28:33.645Z,33.98
2019-06-15T09:31:03.284Z,34.27
2019-06-15T09:33:32.782Z,34.29
2019-06-15T09:36:02.386Z,34.64
2019-06-15T09:38:32.042Z,34.76
2019-06-15T09:41:01.518Z,34.71
2019-06-15T09:43:30.957Z,35.03
2019-06-15T09:46:00.395Z,35.11
2019-06-15T09:48:29.963Z,35.22
2019-06-15T09:50:59.516Z,35.13
2019-06-15T09:53:28.929Z,35.23
2019-06-15T09:55:58.399Z,35.26
2019-06-15T09:58:27.867Z,35.54
2019-06-15T10:00:57.318Z,35.73
2019-06-15T10:03:26.742Z,35.95
2019-06-15T10:05:56.156Z,35.80
2019-06-15T10:08:25.675Z,36.18
2019-06-15T10:10:55.228Z,36.61
2019-06-15T10:13:24.655Z,36.89
2019-06-15T10:15:54.172Z,36.77
2019-06-15T10:18:23.773Z,36.64
2019-06-15T10:20:53.191Z,36.65
2019-06-15T10:23:22.725Z,36.89
2019-06-15T10:25:54.156Z,36.69
2019-06-15T10:28:23.445Z,36.18
2019-06-15T10:30:52.876Z,36.07
2019-06-15T10:33:22.331Z,36.61
2019-06-15T10:35:51.753Z,36.40
2019-06-15T10:38:21.339Z,36.72
2019-06-15T10:40:50.847Z,37.54
2019-06-15T10:43:20.364Z,38.56
2019-06-15T10:45:49.872Z,38.23
2019-06-15T10:48:19.364Z,38.27
2019-06-15T10:50:48.926Z,39.47
2019-06-15T10:53:18.633Z,39.28
2019-06-15T10:55:48.169Z,38.73
2019-06-15T10:58:17.746Z,38.99
2019-06-15T11:00:48.923Z,39.04
2019-06-15T11:03:18.641Z,38.30
2019-06-15T11:05:48.133Z,38.21
2019-06-15T11:08:17.552Z,38.93
2019-06-15T11:11:03.875Z,39.28
2019-06-15T11:13:33.319Z,39.28
2019-06-15T11:16:02.772Z,39.44
2019-06-15T11:18:32.263Z,39.80
2019-06-15T11:21:01.796Z,40.04
2019-06-15T11:23:31.371Z,40.29
2019-06-15T11:26:00.792Z,39.58
2019-06-15T11:28:30.298Z,39.11
2019-06-15T11:30:59.806Z,38.68
2019-06-15T11:33:29.240Z,38.05
2019-06-15T11:35:58.715Z,37.91
2019-06-15T11:38:28.132Z,38.04
2019-06-15T11:40:57.626Z,37.38
2019-06-15T11:43:27.061Z,37.46
2019-06-15T11:45:56.530Z,37.60
2019-06-15T11:48:26.077Z,37.39
2019-06-15T11:50:55.614Z,37.50
2019-06-15T11:53:25.047Z,37.51
2019-06-15T11:55:54.516Z,36.96
2019-06-15T11:58:24.039Z,36.71
2019-06-15T12:00:53.465Z,37.68
2019-06-15T12:03:22.999Z,38.27
2019-06-15T12:05:52.684Z,37.94
2019-06-15T12:08:22.266Z,38.25
2019-06-15T12:10:51.785Z,38.81
2019-06-15T12:13:21.337Z,38.67
2019-06-15T12:15:50.871Z,39.57
2019-06-15T12:18:20.484Z,40.23
2019-06-15T12:20:49.997Z,40.75
2019-06-15T12:23:19.515Z,41.30
2019-06-15T12:25:49.016Z,41.44
2019-06-15T12:28:18.596Z,40.59
2019-06-15T12:30:48.168Z,40.30
2019-06-15T12:33:17.654Z,40.77
2019-06-15T12:35:47.098Z,40.86
2019-06-15T12:38:16.546Z,41.45
2019-06-15T12:40:46.101Z,42.18
2019-06-15T12:43:15.771Z,41.34
2019-06-15T12:45:45.370Z,40.62
2019-06-15T12:48:14.827Z,40.59
2019-06-15T12:50:44.469Z,40.87
2019-06-15T12:53:13.905Z,40.92
2019-06-15T12:55:43.323Z,41.57
2019-06-15T12:58:12.774Z,41.66
2019-06-15T13:00:42.381Z,41.39
2019-06-15T13:03:12.061Z,41.70
2019-06-15T13:05:41.782Z,41.98
2019-06-15T13:08:11.357Z,41.72
2019-06-15T13:10:40.931Z,41.12
2019-06-15T13:13:10.363Z,40.44
2019-06-15T13:15:39.924Z,40.88
2019-06-15T13:18:09.359Z,41.45
2019-06-15T13:20:38.856Z,41.58
2019-06-15T13:23:08.328Z,41.98
2019-06-15T13:25:37.750Z,41.59
2019-06-15T13:28:07.354Z,41.67
2019-06-15T13:30:36.890Z,41.63
2019-06-15T13:33:06.348Z,41.69
2019-06-15T13:35:36.126Z,41.47
2019-06-15T13:38:05.652Z,41.50
2019-06-15T13:40:35.108Z,41.68
2019-06-15T13:43:04.599Z,41.72
2019-06-15T13:45:34.100Z,41.09
2019-06-15T13:48:03.533Z,40.48
2019-06-15T13:50:33.121Z,40.94
2019-06-15T13:53:02.762Z,39.55
2019-06-15T13:55:32.373Z,38.55
2019-06-15T13:58:01.952Z,37.94
2019-06-15T14:00:31.489Z,37.30
2019-06-15T14:03:00.945Z,36.97
2019-06-15T14:05:30.398Z,36.55
2019-06-15T14:07:59.833Z,36.21
2019-06-15T14:10:29.320Z,35.91
2019-06-15T14:12:58.777Z,35.78
2019-06-15T14:15:28.206Z,35.57
2019-06-15T14:17:57.679Z,35.18
2019-06-15T14:20:27.121Z,34.79
2019-06-15T14:22:56.687Z,34.56
2019-06-15T14:25:26.138Z,34.33
2019-06-15T14:27:55.566Z,33.96
2019-06-15T14:30:25.180Z,33.79
2019-06-15T14:32:54.810Z,33.53
2019-06-15T14:35:24.333Z,33.40
2019-06-15T14:37:53.763Z,33.27
2019-06-15T14:40:23.193Z,33.17
2019-06-15T14:42:52.793Z,33.11
2019-06-15T14:45:22.739Z,32.95
2019-06-15T14:47:52.164Z,32.87
2019-06-15T14:50:21.689Z,32.75
2019-06-15T14:52:51.270Z,32.68
2019-06-15T14:55:20.718Z,32.64
2019-06-15T14:57:50.157Z,32.62
2019-06-15T15:00:19.603Z,32.55
2019-06-15T15:02:49.042Z,32.60
2019-06-15T15:05:18.616Z,32.56
2019-06-15T15:07:48.077Z,32.55
2019-06-15T15:10:18.088Z,32.48
2019-06-15T15:12:47.538Z,32.46
2019-06-15T15:15:17.315Z,32.31
2019-06-15T15:17:46.724Z,32.20
2019-06-15T15:20:17.348Z,32.08
2019-06-15T15:22:46.982Z,32.08
2019-06-15T15:25:16.970Z,32.05
2019-06-15T15:27:46.984Z,32.02
2019-06-15T15:30:26.870Z,32.03
2019-06-15T15:32:57.159Z,32.02
2019-06-15T15:35:27.095Z,31.95
2019-06-15T15:37:56.953Z,32.05
2019-06-15T15:40:27.416Z,32.08
2019-06-15T15:42:57.418Z,32.08
2019-06-15T15:45:26.981Z,32.01
2019-06-15T15:47:56.395Z,32.21
2019-06-15T15:50:26.398Z,32.21
2019-06-15T15:52:56.767Z,32.32
2019-06-15T15:55:26.693Z,32.32
2019-06-15T15:57:56.470Z,32.20
2019-06-15T16:03:07.037Z,32.02
2019-06-15T16:05:37.281Z,31.80
2019-06-15T16:08:06.988Z,31.62
2019-06-15T16:10:37.376Z,31.27
2019-06-15T16:13:07.194Z,31.27
2019-06-15T16:15:37.450Z,31.18
2019-06-15T16:18:07.267Z,31.03
2019-06-15T16:20:37.165Z,31.03
2019-06-15T16:23:07.499Z,30.99
2019-06-15T16:25:37.494Z,30.97
2019-06-15T16:28:07.460Z,30.92
2019-06-15T16:31:00.407Z,30.92
2019-06-15T16:33:08.239Z,30.90
2019-06-15T16:35:37.898Z,30.84
2019-06-15T16:38:07.460Z,30.82
2019-06-15T16:40:38.683Z,30.75
2019-06-15T16:43:08.147Z,30.78
2019-06-15T16:45:37.729Z,30.81
2019-06-15T16:48:07.208Z,30.78
2019-06-15T16:50:37.072Z,30.79
2019-06-15T16:53:06.673Z,30.83
2019-06-15T16:55:37.046Z,30.83
2019-06-15T16:58:07.463Z,30.88
2019-06-15T17:00:37.190Z,30.95
2019-06-15T17:03:20.639Z,31.09
2019-06-15T17:05:38.462Z,31.13
2019-06-15T17:08:07.971Z,31.10
2019-06-15T17:10:41.265Z,31.01
2019-06-15T17:13:10.814Z,30.95
2019-06-15T17:15:40.270Z,30.86
2019-06-15T17:18:09.921Z,30.72
2019-06-15T17:20:49.620Z,30.51
2019-06-15T17:23:19.215Z,30.36
2019-06-15T17:25:48.724Z,29.60
2019-06-15T17:28:18.148Z,28.17
2019-06-15T17:30:47.580Z,26.90
2019-06-15T17:33:17.082Z,25.82
2019-06-15T17:35:56.110Z,25.06
2019-06-15T17:38:17.707Z,24.55
2019-06-15T17:40:47.205Z,24.09
2019-06-15T17:43:16.661Z,23.72
2019-06-15T17:45:46.736Z,23.49
2019-06-15T17:48:17.448Z,23.13
2019-06-15T17:50:47.848Z,22.89
2019-06-15T17:53:17.640Z,22.49
2019-06-15T17:55:47.138Z,22.22
2019-06-15T17:58:19.536Z,22.00
2019-06-15T18:00:49.017Z,21.82
2019-06-15T18:03:18.617Z,21.49
2019-06-15T18:05:48.603Z,21.27
2019-06-15T18:08:18.123Z,21.02
2019-06-15T18:10:48.201Z,20.88
2019-06-15T18:13:17.876Z,20.78
2019-06-15T18:15:48.118Z,20.69
2019-06-15T18:18:17.906Z,20.62
2019-06-15T18:20:47.535Z,20.53
2019-06-15T18:23:17.714Z,20.39
2019-06-15T18:25:47.346Z,20.40
2019-06-15T18:28:17.545Z,20.49
2019-06-15T18:30:47.554Z,20.56
2019-06-15T18:33:17.196Z,20.51
2019-06-15T18:35:47.457Z,20.49
2019-06-15T18:38:17.264Z,20.50
2019-06-15T18:40:56.091Z,20.50
2019-06-15T18:43:26.216Z,20.35
2019-06-15T18:45:56.854Z,20.38
2019-06-15T18:48:26.658Z,20.42
2019-06-15T18:50:56.204Z,20.39
2019-06-15T18:53:26.890Z,20.29
2019-06-15T18:55:56.821Z,20.18
2019-06-15T18:58:26.544Z,20.36
2019-06-15T19:00:56.075Z,20.40
2019-06-15T19:03:26.182Z,20.47
2019-06-15T19:05:56.919Z,20.46
2019-06-15T19:08:26.659Z,20.38
2019-06-15T19:10:56.425Z,20.32
2019-06-15T19:13:26.794Z,20.31
2019-06-15T19:15:57.327Z,20.27
2019-06-15T19:18:27.077Z,20.29
2019-06-15T19:20:56.511Z,20.36
2019-06-15T19:23:26.542Z,20.40
2019-06-15T19:25:57.385Z,20.44
2019-06-15T19:28:27.289Z,20.48
2019-06-15T19:30:56.746Z,20.45
2019-06-15T19:33:26.845Z,20.45
2019-06-15T19:35:57.118Z,20.46
2019-06-15T19:38:27.267Z,20.42
2019-06-15T19:40:56.814Z,20.36
2019-06-15T19:43:26.465Z,20.33
2019-06-15T19:45:56.654Z,20.27
2019-06-15T19:48:26.893Z,20.22
2019-06-15T19:50:56.880Z,20.19
2019-06-15T19:53:27.274Z,20.19
2019-06-15T19:55:57.648Z,20.24
2019-06-15T19:58:27.410Z,20.27
2019-06-15T20:00:56.836Z,20.30
2019-06-15T20:03:27.363Z,20.41
2019-06-15T20:05:57.297Z,20.45
2019-06-15T20:08:26.811Z,20.52
2019-06-15T20:10:56.706Z,20.49
2019-06-15T20:13:26.268Z,20.44
2019-06-15T20:15:57.271Z,20.43
2019-06-15T20:18:30.058Z,20.41
2019-06-15T20:20:58.313Z,20.40
2019-06-15T20:23:28.845Z,20.35
2019-06-15T20:25:58.575Z,20.39
2019-06-15T20:28:28.127Z,20.45
2019-06-15T20:30:57.569Z,20.47
2019-06-15T20:33:27.018Z,20.48
2019-06-15T20:35:57.467Z,20.53
2019-06-15T20:38:27.294Z,20.52
2019-06-15T20:40:56.850Z,20.52
2019-06-15T20:43:27.397Z,20.57
2019-06-15T20:45:57.241Z,20.57
2019-06-15T20:48:27.096Z,20.52
2019-06-15T20:50:57.009Z,20.56
2019-06-15T20:53:26.556Z,20.58
2019-06-15T20:55:56.974Z,20.60
2019-06-15T20:58:26.641Z,20.61
2019-06-15T21:00:56.426Z,20.61
2019-06-15T21:03:26.931Z,20.60
2019-06-15T21:05:57.485Z,20.59
2019-06-15T21:08:27.264Z,20.56
2019-06-15T21:10:56.835Z,20.44
2019-06-15T21:13:26.641Z,20.42
2019-06-15T21:15:56.910Z,20.45
2019-06-15T21:18:26.506Z,20.48
2019-06-15T21:20:56.336Z,20.48
2019-06-15T21:23:26.888Z,20.50
2019-06-15T21:25:57.087Z,20.48
2019-06-15T21:28:27.344Z,20.45
2019-06-15T21:30:56.982Z,20.40
2019-06-15T21:33:26.691Z,20.42
2019-06-15T21:35:56.805Z,20.36
2019-06-15T21:38:26.607Z,20.28
2019-06-15T21:40:57.123Z,20.25
2019-06-15T21:43:26.738Z,20.21
2019-06-15T21:45:57.016Z,20.21
2019-06-15T21:48:27.045Z,20.20
2019-06-15T21:50:59.277Z,20.21
2019-06-15T21:53:27.808Z,20.22
2019-06-15T21:55:57.358Z,20.16
2019-06-15T21:58:27.253Z,20.14
2019-06-15T22:01:29.001Z,20.06
2019-06-15T22:03:58.567Z,20.02
2019-06-15T22:06:28.011Z,19.95
2019-06-15T22:08:57.562Z,19.92
2019-06-15T22:11:27.018Z,19.87
2019-06-15T22:13:57.150Z,19.87
2019-06-15T22:16:27.669Z,19.84
2019-06-15T22:18:57.280Z,19.80
2019-06-15T22:21:28.134Z,19.76
2019-06-15T22:23:57.723Z,19.80
2019-06-15T22:26:27.392Z,19.80
2019-06-15T22:28:57.122Z,19.68
2019-06-15T22:31:26.911Z,19.72
2019-06-15T22:33:56.741Z,19.72
2019-06-15T22:36:28.573Z,19.70
2019-06-15T22:38:57.522Z,19.69
2019-06-15T22:41:27.058Z,19.66
2019-06-15T22:43:56.978Z,19.66
2019-06-15T22:46:26.558Z,19.65
2019-06-15T22:48:56.478Z,19.60
2019-06-15T22:51:27.527Z,19.59
2019-06-15T22:53:57.213Z,19.59
2019-06-15T22:56:26.775Z,19.57
2019-06-15T22:58:56.979Z,19.57
2019-06-15T23:01:26.904Z,19.51
2019-06-15T23:03:57.101Z,19.48
2019-06-15T23:06:37.401Z,19.41
2019-06-15T23:08:57.990Z,19.34
2019-06-15T23:11:27.417Z,19.27
2019-06-15T23:13:57.657Z,19.18
2019-06-15T23:16:27.546Z,19.12
2019-06-15T23:18:57.400Z,19.04
2019-06-15T23:21:27.167Z,19.05
2019-06-15T23:23:56.628Z,19.06
2019-06-15T23:26:26.273Z,19.06
2019-06-15T23:28:56.526Z,19.05
2019-06-15T23:31:26.257Z,19.05
2019-06-15T23:33:56.175Z,19.03
2019-06-15T23:36:30.698Z,19.03
2019-06-15T23:39:00.325Z,19.03
2019-06-15T23:41:29.777Z,19.03
2019-06-15T23:43:59.202Z,18.96
2019-06-15T23:46:28.639Z,18.90
2019-06-15T23:48:58.091Z,18.91
2019-06-15T23:51:27.672Z,18.88
2019-06-15T23:53:57.398Z,18.82
2019-06-15T23:56:26.899Z,18.76
2019-06-15T23:58:56.532Z,18.75
